sensor_id;sensor_type;location;lat;lon;timestamp;P1;durP1;ratioP1;P2;durP2;ratioP2
21890;SDS011;11110;52.386;16.940;2024-03-17T00:01:24;22.80;;;5.87;;
21890;SDS011;11110;52.386;16.940;2024-03-17T00:03:51;15.90;;;4.87;;
21890;SDS011;11110;52.386;16.940;2024-03-17T00:06:18;22.97;;;6.13;;
21890;SDS011;11110;52.386;16.940;2024-03-17T00:08:47;17.77;;;5.67;;
21890;SDS011;11110;52.386;16.940;2024-03-17T00:11:14;22.43;;;5.93;;
21890;SDS011;11110;52.386;16.940;2024-03-17T00:13:41;22.63;;;4.97;;
21890;SDS011;11110;52.386;16.940;2024-03-17T00:16:10;27.97;;;5.60;;
21890;SDS011;11110;52.386;16.940;2024-03-17T00:18:38;23.97;;;5.57;;
21890;SDS011;11110;52.386;16.940;2024-03-17T00:21:06;24.37;;;5.40;;
21890;SDS011;11110;52.386;16.940;2024-03-17T00:23:34;21.53;;;4.60;;
21890;SDS011;11110;52.386;16.940;2024-03-17T00:26:02;17.93;;;4.50;;
21890;SDS011;11110;52.386;16.940;2024-03-17T00:28:30;18.10;;;4.50;;
21890;SDS011;11110;52.386;16.940;2024-03-17T00:30:56;24.93;;;5.93;;
21890;SDS011;11110;52.386;16.940;2024-03-17T00:33:24;27.03;;;5.47;;
21890;SDS011;11110;52.386;16.940;2024-03-17T00:35:50;29.73;;;6.07;;
21890;SDS011;11110;52.386;16.940;2024-03-17T00:38:18;27.07;;;5.53;;
21890;SDS011;11110;52.386;16.940;2024-03-17T00:40:45;24.20;;;5.23;;
21890;SDS011;11110;52.386;16.940;2024-03-17T00:43:14;23.07;;;5.37;;
21890;SDS011;11110;52.386;16.940;2024-03-17T00:45:41;23.50;;;5.60;;
21890;SDS011;11110;52.386;16.940;2024-03-17T00:48:08;21.50;;;5.07;;
21890;SDS011;11110;52.386;16.940;2024-03-17T00:50:35;18.47;;;4.93;;
21890;SDS011;11110;52.386;16.940;2024-03-17T00:53:03;18.50;;;4.67;;
21890;SDS011;11110;52.386;16.940;2024-03-17T00:55:30;24.47;;;5.33;;
21890;SDS011;11110;52.386;16.940;2024-03-17T00:57:58;17.30;;;4.67;;
21890;SDS011;11110;52.386;16.940;2024-03-17T01:00:26;19.17;;;4.97;;
21890;SDS011;11110;52.386;16.940;2024-03-17T01:02:53;16.67;;;4.23;;
21890;SDS011;11110;52.386;16.940;2024-03-17T01:05:20;26.13;;;5.60;;
21890;SDS011;11110;52.386;16.940;2024-03-17T01:07:48;15.53;;;4.30;;
21890;SDS011;11110;52.386;16.940;2024-03-17T01:10:15;23.27;;;5.13;;
21890;SDS011;11110;52.386;16.940;2024-03-17T01:12:43;17.97;;;5.03;;
21890;SDS011;11110;52.386;16.940;2024-03-17T01:15:11;22.43;;;4.97;;
21890;SDS011;11110;52.386;16.940;2024-03-17T01:17:40;17.97;;;4.23;;
21890;SDS011;11110;52.386;16.940;2024-03-17T01:20:07;18.33;;;4.73;;
21890;SDS011;11110;52.386;16.940;2024-03-17T01:22:35;29.27;;;5.10;;
21890;SDS011;11110;52.386;16.940;2024-03-17T01:25:02;19.83;;;3.80;;
21890;SDS011;11110;52.386;16.940;2024-03-17T01:27:32;19.80;;;4.17;;
21890;SDS011;11110;52.386;16.940;2024-03-17T01:29:58;25.67;;;5.33;;
21890;SDS011;11110;52.386;16.940;2024-03-17T01:32:26;20.00;;;4.50;;
21890;SDS011;11110;52.386;16.940;2024-03-17T01:34:54;18.50;;;4.00;;
21890;SDS011;11110;52.386;16.940;2024-03-17T01:37:21;20.33;;;4.90;;
21890;SDS011;11110;52.386;16.940;2024-03-17T01:39:48;18.50;;;3.90;;
21890;SDS011;11110;52.386;16.940;2024-03-17T01:42:16;19.97;;;3.97;;
21890;SDS011;11110;52.386;16.940;2024-03-17T01:44:43;21.07;;;4.90;;
21890;SDS011;11110;52.386;16.940;2024-03-17T01:47:10;12.73;;;3.77;;
21890;SDS011;11110;52.386;16.940;2024-03-17T01:49:37;20.20;;;3.93;;
21890;SDS011;11110;52.386;16.940;2024-03-17T01:52:06;23.07;;;4.93;;
21890;SDS011;11110;52.386;16.940;2024-03-17T01:54:33;16.87;;;4.30;;
21890;SDS011;11110;52.386;16.940;2024-03-17T01:57:01;17.20;;;4.50;;
21890;SDS011;11110;52.386;16.940;2024-03-17T01:59:28;23.17;;;5.30;;
21890;SDS011;11110;52.386;16.940;2024-03-17T02:01:55;23.90;;;5.10;;
21890;SDS011;11110;52.386;16.940;2024-03-17T02:04:24;20.87;;;5.10;;
21890;SDS011;11110;52.386;16.940;2024-03-17T02:06:50;25.63;;;4.93;;
21890;SDS011;11110;52.386;16.940;2024-03-17T02:09:19;24.67;;;6.10;;
21890;SDS011;11110;52.386;16.940;2024-03-17T02:11:47;24.13;;;5.47;;
21890;SDS011;11110;52.386;16.940;2024-03-17T02:14:14;20.33;;;5.37;;
21890;SDS011;11110;52.386;16.940;2024-03-17T02:16:43;26.80;;;6.20;;
21890;SDS011;11110;52.386;16.940;2024-03-17T02:19:09;18.00;;;5.37;;
21890;SDS011;11110;52.386;16.940;2024-03-17T02:21:37;18.47;;;5.07;;
21890;SDS011;11110;52.386;16.940;2024-03-17T02:24:05;18.00;;;4.53;;
21890;SDS011;11110;52.386;16.940;2024-03-17T02:26:35;21.73;;;4.93;;
21890;SDS011;11110;52.386;16.940;2024-03-17T02:29:01;23.07;;;5.70;;
21890;SDS011;11110;52.386;16.940;2024-03-17T02:31:29;31.70;;;6.13;;
21890;SDS011;11110;52.386;16.940;2024-03-17T02:33:56;18.97;;;4.20;;
21890;SDS011;11110;52.386;16.940;2024-03-17T02:36:23;21.00;;;4.37;;
21890;SDS011;11110;52.386;16.940;2024-03-17T02:38:50;23.77;;;5.03;;
21890;SDS011;11110;52.386;16.940;2024-03-17T02:41:36;20.20;;;4.33;;
21890;SDS011;11110;52.386;16.940;2024-03-17T02:44:03;28.13;;;5.33;;
21890;SDS011;11110;52.386;16.940;2024-03-17T02:46:31;15.80;;;3.97;;
21890;SDS011;11110;52.386;16.940;2024-03-17T02:49:00;19.10;;;3.90;;
21890;SDS011;11110;52.386;16.940;2024-03-17T02:51:27;17.10;;;3.97;;
21890;SDS011;11110;52.386;16.940;2024-03-17T02:53:55;28.13;;;4.67;;
21890;SDS011;11110;52.386;16.940;2024-03-17T02:56:25;22.97;;;4.43;;
21890;SDS011;11110;52.386;16.940;2024-03-17T02:58:54;20.30;;;4.33;;
21890;SDS011;11110;52.386;16.940;2024-03-17T03:01:21;22.80;;;4.30;;
21890;SDS011;11110;52.386;16.940;2024-03-17T03:03:50;14.43;;;3.60;;
21890;SDS011;11110;52.386;16.940;2024-03-17T03:06:17;18.97;;;4.10;;
21890;SDS011;11110;52.386;16.940;2024-03-17T03:08:45;23.00;;;4.60;;
21890;SDS011;11110;52.386;16.940;2024-03-17T03:11:16;19.27;;;4.20;;
21890;SDS011;11110;52.386;16.940;2024-03-17T03:13:44;17.33;;;3.70;;
21890;SDS011;11110;52.386;16.940;2024-03-17T03:16:13;21.37;;;4.73;;
21890;SDS011;11110;52.386;16.940;2024-03-17T03:18:42;25.33;;;4.83;;
21890;SDS011;11110;52.386;16.940;2024-03-17T03:21:10;28.67;;;5.33;;
21890;SDS011;11110;52.386;16.940;2024-03-17T03:23:38;15.80;;;3.93;;
21890;SDS011;11110;52.386;16.940;2024-03-17T03:26:05;30.47;;;5.10;;
21890;SDS011;11110;52.386;16.940;2024-03-17T03:28:35;27.73;;;5.17;;
21890;SDS011;11110;52.386;16.940;2024-03-17T03:31:03;20.13;;;4.47;;
21890;SDS011;11110;52.386;16.940;2024-03-17T03:33:32;24.13;;;4.73;;
21890;SDS011;11110;52.386;16.940;2024-03-17T03:36:06;27.67;;;5.50;;
21890;SDS011;11110;52.386;16.940;2024-03-17T03:38:35;24.80;;;4.43;;
21890;SDS011;11110;52.386;16.940;2024-03-17T03:41:06;23.17;;;4.50;;
21890;SDS011;11110;52.386;16.940;2024-03-17T03:43:35;22.27;;;4.17;;
21890;SDS011;11110;52.386;16.940;2024-03-17T03:46:03;22.27;;;4.83;;
21890;SDS011;11110;52.386;16.940;2024-03-17T03:48:33;28.67;;;5.27;;
21890;SDS011;11110;52.386;16.940;2024-03-17T03:51:03;20.90;;;3.97;;
21890;SDS011;11110;52.386;16.940;2024-03-17T03:53:32;16.03;;;4.07;;
21890;SDS011;11110;52.386;16.940;2024-03-17T03:56:00;23.33;;;4.13;;
21890;SDS011;11110;52.386;16.940;2024-03-17T03:58:32;22.20;;;4.30;;
21890;SDS011;11110;52.386;16.940;2024-03-17T04:01:00;25.57;;;4.40;;
21890;SDS011;11110;52.386;16.940;2024-03-17T04:03:30;26.37;;;4.63;;
21890;SDS011;11110;52.386;16.940;2024-03-17T04:06:04;22.93;;;4.33;;
21890;SDS011;11110;52.386;16.940;2024-03-17T04:08:32;18.23;;;4.00;;
21890;SDS011;11110;52.386;16.940;2024-03-17T04:11:00;26.10;;;4.87;;
21890;SDS011;11110;52.386;16.940;2024-03-17T04:13:29;25.50;;;4.53;;
21890;SDS011;11110;52.386;16.940;2024-03-17T04:15:56;29.50;;;5.00;;
21890;SDS011;11110;52.386;16.940;2024-03-17T04:18:25;26.23;;;4.53;;
21890;SDS011;11110;52.386;16.940;2024-03-17T04:20:56;22.17;;;4.00;;
21890;SDS011;11110;52.386;16.940;2024-03-17T04:23:26;26.03;;;5.30;;
21890;SDS011;11110;52.386;16.940;2024-03-17T04:25:53;30.57;;;5.07;;
21890;SDS011;11110;52.386;16.940;2024-03-17T04:28:21;22.30;;;4.43;;
21890;SDS011;11110;52.386;16.940;2024-03-17T04:30:49;32.13;;;5.13;;
21890;SDS011;11110;52.386;16.940;2024-03-17T04:33:17;22.83;;;4.70;;
21890;SDS011;11110;52.386;16.940;2024-03-17T04:35:44;21.17;;;4.03;;
21890;SDS011;11110;52.386;16.940;2024-03-17T04:38:12;17.63;;;3.77;;
21890;SDS011;11110;52.386;16.940;2024-03-17T04:40:41;27.00;;;4.83;;
21890;SDS011;11110;52.386;16.940;2024-03-17T04:43:09;15.83;;;3.33;;
21890;SDS011;11110;52.386;16.940;2024-03-17T04:45:37;14.93;;;3.33;;
21890;SDS011;11110;52.386;16.940;2024-03-17T04:48:05;19.10;;;3.67;;
21890;SDS011;11110;52.386;16.940;2024-03-17T04:50:33;21.30;;;4.20;;
21890;SDS011;11110;52.386;16.940;2024-03-17T04:53:01;23.40;;;4.33;;
21890;SDS011;11110;52.386;16.940;2024-03-17T04:55:28;15.63;;;3.33;;
21890;SDS011;11110;52.386;16.940;2024-03-17T04:57:57;20.13;;;4.03;;
21890;SDS011;11110;52.386;16.940;2024-03-17T05:00:25;24.63;;;4.53;;
21890;SDS011;11110;52.386;16.940;2024-03-17T05:02:52;18.57;;;3.90;;
21890;SDS011;11110;52.386;16.940;2024-03-17T05:05:19;24.73;;;4.50;;
21890;SDS011;11110;52.386;16.940;2024-03-17T05:07:49;25.43;;;4.83;;
21890;SDS011;11110;52.386;16.940;2024-03-17T05:10:17;22.13;;;4.03;;
21890;SDS011;11110;52.386;16.940;2024-03-17T05:12:44;20.10;;;3.70;;
21890;SDS011;11110;52.386;16.940;2024-03-17T05:15:15;20.47;;;4.03;;
21890;SDS011;11110;52.386;16.940;2024-03-17T05:17:44;21.53;;;3.90;;
21890;SDS011;11110;52.386;16.940;2024-03-17T05:20:11;22.53;;;4.77;;
21890;SDS011;11110;52.386;16.940;2024-03-17T05:22:40;27.67;;;4.57;;
21890;SDS011;11110;52.386;16.940;2024-03-17T05:25:08;21.10;;;4.00;;
21890;SDS011;11110;52.386;16.940;2024-03-17T05:27:35;20.93;;;4.13;;
21890;SDS011;11110;52.386;16.940;2024-03-17T05:30:03;28.93;;;4.93;;
21890;SDS011;11110;52.386;16.940;2024-03-17T05:32:36;15.63;;;3.17;;
21890;SDS011;11110;52.386;16.940;2024-03-17T05:35:04;16.13;;;3.33;;
21890;SDS011;11110;52.386;16.940;2024-03-17T05:37:32;18.00;;;3.83;;
21890;SDS011;11110;52.386;16.940;2024-03-17T05:40:00;22.40;;;4.47;;
21890;SDS011;11110;52.386;16.940;2024-03-17T05:42:27;22.27;;;4.43;;
21890;SDS011;11110;52.386;16.940;2024-03-17T05:44:55;24.37;;;4.67;;
21890;SDS011;11110;52.386;16.940;2024-03-17T05:47:23;20.33;;;4.30;;
21890;SDS011;11110;52.386;16.940;2024-03-17T05:49:52;19.57;;;4.10;;
21890;SDS011;11110;52.386;16.940;2024-03-17T05:52:21;27.40;;;4.83;;
21890;SDS011;11110;52.386;16.940;2024-03-17T05:54:49;24.50;;;5.23;;
21890;SDS011;11110;52.386;16.940;2024-03-17T05:57:16;28.40;;;5.87;;
21890;SDS011;11110;52.386;16.940;2024-03-17T05:59:44;27.60;;;5.03;;
21890;SDS011;11110;52.386;16.940;2024-03-17T06:02:12;24.80;;;4.87;;
21890;SDS011;11110;52.386;16.940;2024-03-17T06:04:40;28.73;;;5.07;;
21890;SDS011;11110;52.386;16.940;2024-03-17T06:07:09;25.50;;;4.70;;
21890;SDS011;11110;52.386;16.940;2024-03-17T06:09:37;22.37;;;4.40;;
21890;SDS011;11110;52.386;16.940;2024-03-17T06:12:05;28.10;;;5.30;;
21890;SDS011;11110;52.386;16.940;2024-03-17T06:14:32;22.47;;;4.47;;
21890;SDS011;11110;52.386;16.940;2024-03-17T06:17:01;23.53;;;4.23;;
21890;SDS011;11110;52.386;16.940;2024-03-17T06:19:30;17.77;;;3.33;;
21890;SDS011;11110;52.386;16.940;2024-03-17T06:21:57;20.53;;;3.80;;
21890;SDS011;11110;52.386;16.940;2024-03-17T06:24:26;16.77;;;3.47;;
21890;SDS011;11110;52.386;16.940;2024-03-17T06:26:55;26.57;;;4.17;;
21890;SDS011;11110;52.386;16.940;2024-03-17T06:29:22;18.23;;;3.47;;
21890;SDS011;11110;52.386;16.940;2024-03-17T06:31:50;28.20;;;5.20;;
21890;SDS011;11110;52.386;16.940;2024-03-17T06:34:17;17.43;;;3.53;;
21890;SDS011;11110;52.386;16.940;2024-03-17T06:36:47;15.00;;;3.23;;
21890;SDS011;11110;52.386;16.940;2024-03-17T06:39:14;29.63;;;5.20;;
21890;SDS011;11110;52.386;16.940;2024-03-17T06:41:43;24.27;;;4.77;;
21890;SDS011;11110;52.386;16.940;2024-03-17T06:44:11;28.80;;;5.07;;
21890;SDS011;11110;52.386;16.940;2024-03-17T06:46:38;22.87;;;4.40;;
21890;SDS011;11110;52.386;16.940;2024-03-17T06:49:06;24.43;;;4.67;;
21890;SDS011;11110;52.386;16.940;2024-03-17T06:51:33;27.50;;;5.17;;
21890;SDS011;11110;52.386;16.940;2024-03-17T06:54:01;23.80;;;4.30;;
21890;SDS011;11110;52.386;16.940;2024-03-17T06:56:29;26.87;;;4.97;;
21890;SDS011;11110;52.386;16.940;2024-03-17T06:58:59;28.53;;;5.43;;
21890;SDS011;11110;52.386;16.940;2024-03-17T07:01:27;29.70;;;5.37;;
21890;SDS011;11110;52.386;16.940;2024-03-17T07:03:55;24.17;;;4.50;;
21890;SDS011;11110;52.386;16.940;2024-03-17T07:06:22;20.40;;;4.03;;
21890;SDS011;11110;52.386;16.940;2024-03-17T07:08:50;26.00;;;4.73;;
21890;SDS011;11110;52.386;16.940;2024-03-17T07:11:17;28.30;;;4.90;;
21890;SDS011;11110;52.386;16.940;2024-03-17T07:13:49;26.60;;;4.67;;
21890;SDS011;11110;52.386;16.940;2024-03-17T07:16:18;21.03;;;4.77;;
21890;SDS011;11110;52.386;16.940;2024-03-17T07:18:47;24.77;;;4.70;;
21890;SDS011;11110;52.386;16.940;2024-03-17T07:21:15;24.50;;;4.83;;
21890;SDS011;11110;52.386;16.940;2024-03-17T07:23:43;32.50;;;5.77;;
21890;SDS011;11110;52.386;16.940;2024-03-17T07:26:11;26.70;;;4.77;;
21890;SDS011;11110;52.386;16.940;2024-03-17T07:28:39;24.93;;;5.03;;
21890;SDS011;11110;52.386;16.940;2024-03-17T07:31:08;22.50;;;5.00;;
21890;SDS011;11110;52.386;16.940;2024-03-17T07:33:38;31.03;;;6.30;;
21890;SDS011;11110;52.386;16.940;2024-03-17T07:36:06;25.63;;;6.23;;
21890;SDS011;11110;52.386;16.940;2024-03-17T07:38:35;27.63;;;5.27;;
21890;SDS011;11110;52.386;16.940;2024-03-17T07:41:04;32.00;;;6.40;;
21890;SDS011;11110;52.386;16.940;2024-03-17T07:43:33;16.83;;;4.63;;
21890;SDS011;11110;52.386;16.940;2024-03-17T07:46:02;26.83;;;5.10;;
21890;SDS011;11110;52.386;16.940;2024-03-17T07:48:31;28.83;;;6.13;;
21890;SDS011;11110;52.386;16.940;2024-03-17T07:51:01;26.77;;;5.83;;
21890;SDS011;11110;52.386;16.940;2024-03-17T07:53:30;27.93;;;11.57;;
21890;SDS011;11110;52.386;16.940;2024-03-17T07:55:58;42.60;;;17.33;;
21890;SDS011;11110;52.386;16.940;2024-03-17T07:58:26;32.93;;;27.57;;
21890;SDS011;11110;52.386;16.940;2024-03-17T08:00:57;23.83;;;8.73;;
21890;SDS011;11110;52.386;16.940;2024-03-17T08:03:26;39.90;;;13.13;;
21890;SDS011;11110;52.386;16.940;2024-03-17T08:05:54;21.10;;;6.67;;
21890;SDS011;11110;52.386;16.940;2024-03-17T08:08:23;26.87;;;12.63;;
21890;SDS011;11110;52.386;16.940;2024-03-17T08:10:51;32.17;;;20.30;;
21890;SDS011;11110;52.386;16.940;2024-03-17T08:13:19;23.30;;;10.13;;
21890;SDS011;11110;52.386;16.940;2024-03-17T08:15:54;23.97;;;10.97;;
21890;SDS011;11110;52.386;16.940;2024-03-17T08:18:22;29.80;;;14.90;;
21890;SDS011;11110;52.386;16.940;2024-03-17T08:20:50;24.23;;;12.40;;
21890;SDS011;11110;52.386;16.940;2024-03-17T08:23:19;24.33;;;9.17;;
21890;SDS011;11110;52.386;16.940;2024-03-17T08:25:52;26.37;;;16.00;;
21890;SDS011;11110;52.386;16.940;2024-03-17T08:28:20;36.77;;;30.30;;
21890;SDS011;11110;52.386;16.940;2024-03-17T08:30:51;50.47;;;39.27;;
21890;SDS011;11110;52.386;16.940;2024-03-17T08:33:20;81.90;;;54.23;;
21890;SDS011;11110;52.386;16.940;2024-03-17T08:35:52;120.23;;;108.43;;
21890;SDS011;11110;52.386;16.940;2024-03-17T08:38:20;68.80;;;47.90;;
21890;SDS011;11110;52.386;16.940;2024-03-17T08:40:49;81.63;;;54.10;;
21890;SDS011;11110;52.386;16.940;2024-03-17T08:43:18;85.83;;;55.23;;
21890;SDS011;11110;52.386;16.940;2024-03-17T08:45:53;88.47;;;61.10;;
21890;SDS011;11110;52.386;16.940;2024-03-17T08:48:24;90.27;;;58.80;;
21890;SDS011;11110;52.386;16.940;2024-03-17T08:50:51;86.83;;;57.33;;
21890;SDS011;11110;52.386;16.940;2024-03-17T08:53:19;64.13;;;49.17;;
21890;SDS011;11110;52.386;16.940;2024-03-17T08:55:47;72.80;;;51.47;;
21890;SDS011;11110;52.386;16.940;2024-03-17T08:58:15;76.80;;;53.73;;
21890;SDS011;11110;52.386;16.940;2024-03-17T09:00:44;107.40;;;59.30;;
21890;SDS011;11110;52.386;16.940;2024-03-17T09:03:12;155.00;;;65.80;;
21890;SDS011;11110;52.386;16.940;2024-03-17T09:05:41;20.80;;;5.17;;
21890;SDS011;11110;52.386;16.940;2024-03-17T09:08:10;16.93;;;4.37;;
21890;SDS011;11110;52.386;16.940;2024-03-17T09:10:43;25.27;;;5.40;;
21890;SDS011;11110;52.386;16.940;2024-03-17T09:13:11;16.27;;;4.20;;
21890;SDS011;11110;52.386;16.940;2024-03-17T09:15:41;23.63;;;5.47;;
21890;SDS011;11110;52.386;16.940;2024-03-17T09:18:18;23.43;;;5.50;;
21890;SDS011;11110;52.386;16.940;2024-03-17T09:20:46;16.50;;;4.07;;
21890;SDS011;11110;52.386;16.940;2024-03-17T09:23:22;19.20;;;4.60;;
21890;SDS011;11110;52.386;16.940;2024-03-17T09:25:57;24.70;;;5.30;;
21890;SDS011;11110;52.386;16.940;2024-03-17T09:28:25;20.17;;;4.77;;
21890;SDS011;11110;52.386;16.940;2024-03-17T09:30:54;19.37;;;4.87;;
21890;SDS011;11110;52.386;16.940;2024-03-17T09:33:22;21.47;;;4.93;;
21890;SDS011;11110;52.386;16.940;2024-03-17T09:35:54;18.70;;;4.40;;
21890;SDS011;11110;52.386;16.940;2024-03-17T09:38:22;20.60;;;5.70;;
21890;SDS011;11110;52.386;16.940;2024-03-17T09:40:50;19.90;;;5.20;;
21890;SDS011;11110;52.386;16.940;2024-03-17T09:43:19;18.57;;;4.97;;
21890;SDS011;11110;52.386;16.940;2024-03-17T09:45:47;21.83;;;5.10;;
21890;SDS011;11110;52.386;16.940;2024-03-17T09:48:17;19.03;;;4.77;;
21890;SDS011;11110;52.386;16.940;2024-03-17T09:50:49;19.43;;;4.47;;
21890;SDS011;11110;52.386;16.940;2024-03-17T09:53:22;18.30;;;4.33;;
21890;SDS011;11110;52.386;16.940;2024-03-17T09:55:52;18.67;;;4.63;;
21890;SDS011;11110;52.386;16.940;2024-03-17T09:58:22;17.70;;;4.10;;
21890;SDS011;11110;52.386;16.940;2024-03-17T10:00:50;33.57;;;7.33;;
21890;SDS011;11110;52.386;16.940;2024-03-17T10:06:15;26.93;;;5.97;;
21890;SDS011;11110;52.386;16.940;2024-03-17T10:08:44;33.30;;;13.80;;
21890;SDS011;11110;52.386;16.940;2024-03-17T10:11:13;120.17;;;62.40;;
21890;SDS011;11110;52.386;16.940;2024-03-17T10:13:42;138.97;;;62.80;;
21890;SDS011;11110;52.386;16.940;2024-03-17T10:16:21;126.63;;;59.23;;
21890;SDS011;11110;52.386;16.940;2024-03-17T10:18:54;30.50;;;5.70;;
21890;SDS011;11110;52.386;16.940;2024-03-17T10:21:36;17.47;;;4.43;;
21890;SDS011;11110;52.386;16.940;2024-03-17T10:24:04;20.57;;;4.27;;
21890;SDS011;11110;52.386;16.940;2024-03-17T10:26:38;22.10;;;4.57;;
21890;SDS011;11110;52.386;16.940;2024-03-17T10:29:19;18.73;;;4.03;;
21890;SDS011;11110;52.386;16.940;2024-03-17T10:31:50;16.60;;;3.67;;
21890;SDS011;11110;52.386;16.940;2024-03-17T10:34:20;22.30;;;4.17;;
21890;SDS011;11110;52.386;16.940;2024-03-17T10:36:50;13.37;;;3.47;;
21890;SDS011;11110;52.386;16.940;2024-03-17T10:39:24;20.57;;;4.47;;
21890;SDS011;11110;52.386;16.940;2024-03-17T10:41:59;15.93;;;4.17;;
21890;SDS011;11110;52.386;16.940;2024-03-17T10:44:28;19.73;;;4.27;;
21890;SDS011;11110;52.386;16.940;2024-03-17T10:46:56;20.00;;;4.37;;
21890;SDS011;11110;52.386;16.940;2024-03-17T10:49:29;11.90;;;3.17;;
21890;SDS011;11110;52.386;16.940;2024-03-17T10:52:00;18.63;;;4.13;;
21890;SDS011;11110;52.386;16.940;2024-03-17T10:54:30;17.73;;;4.07;;
21890;SDS011;11110;52.386;16.940;2024-03-17T10:57:01;13.97;;;3.47;;
21890;SDS011;11110;52.386;16.940;2024-03-17T10:59:40;21.17;;;4.97;;
21890;SDS011;11110;52.386;16.940;2024-03-17T11:02:16;13.27;;;3.77;;
21890;SDS011;11110;52.386;16.940;2024-03-17T11:04:50;12.17;;;3.40;;
21890;SDS011;11110;52.386;16.940;2024-03-17T11:07:19;17.67;;;4.77;;
21890;SDS011;11110;52.386;16.940;2024-03-17T11:09:48;14.77;;;4.10;;
21890;SDS011;11110;52.386;16.940;2024-03-17T11:15:37;15.47;;;4.50;;
21890;SDS011;11110;52.386;16.940;2024-03-17T11:20:59;16.33;;;4.83;;
21890;SDS011;11110;52.386;16.940;2024-03-17T11:23:34;13.53;;;3.87;;
21890;SDS011;11110;52.386;16.940;2024-03-17T11:26:02;19.20;;;4.83;;
21890;SDS011;11110;52.386;16.940;2024-03-17T11:28:47;68.07;;;48.57;;
21890;SDS011;11110;52.386;16.940;2024-03-17T11:36:58;45.13;;;25.53;;
21890;SDS011;11110;52.386;16.940;2024-03-17T11:42:25;22.30;;;5.87;;
21890;SDS011;11110;52.386;16.940;2024-03-17T11:44:59;18.00;;;5.10;;
21890;SDS011;11110;52.386;16.940;2024-03-17T11:47:32;13.67;;;4.50;;
21890;SDS011;11110;52.386;16.940;2024-03-17T11:50:03;21.53;;;5.33;;
21890;SDS011;11110;52.386;16.940;2024-03-17T11:52:35;19.33;;;5.37;;
21890;SDS011;11110;52.386;16.940;2024-03-17T11:55:03;18.43;;;4.80;;
21890;SDS011;11110;52.386;16.940;2024-03-17T11:57:31;22.93;;;5.40;;
21890;SDS011;11110;52.386;16.940;2024-03-17T11:59:58;17.40;;;5.20;;
21890;SDS011;11110;52.386;16.940;2024-03-17T12:02:25;18.83;;;5.03;;
21890;SDS011;11110;52.386;16.940;2024-03-17T12:04:54;23.30;;;5.67;;
21890;SDS011;11110;52.386;16.940;2024-03-17T12:07:24;19.87;;;5.10;;
21890;SDS011;11110;52.386;16.940;2024-03-17T12:09:55;17.97;;;5.00;;
21890;SDS011;11110;52.386;16.940;2024-03-17T12:12:24;24.77;;;6.17;;
21890;SDS011;11110;52.386;16.940;2024-03-17T12:14:57;15.57;;;4.67;;
21890;SDS011;11110;52.386;16.940;2024-03-17T12:17:24;16.73;;;4.70;;
21890;SDS011;11110;52.386;16.940;2024-03-17T12:19:52;28.97;;;6.67;;
21890;SDS011;11110;52.386;16.940;2024-03-17T12:22:20;19.40;;;5.47;;
21890;SDS011;11110;52.386;16.940;2024-03-17T12:24:47;17.43;;;4.70;;
21890;SDS011;11110;52.386;16.940;2024-03-17T12:27:18;24.50;;;5.43;;
21890;SDS011;11110;52.386;16.940;2024-03-17T12:29:46;17.77;;;4.60;;
21890;SDS011;11110;52.386;16.940;2024-03-17T12:32:15;18.00;;;4.33;;
21890;SDS011;11110;52.386;16.940;2024-03-17T12:34:43;25.77;;;5.47;;
21890;SDS011;11110;52.386;16.940;2024-03-17T12:37:15;21.67;;;4.70;;
21890;SDS011;11110;52.386;16.940;2024-03-17T12:39:44;14.67;;;3.63;;
21890;SDS011;11110;52.386;16.940;2024-03-17T12:42:12;23.40;;;4.97;;
21890;SDS011;11110;52.386;16.940;2024-03-17T12:44:46;13.77;;;3.50;;
21890;SDS011;11110;52.386;16.940;2024-03-17T12:47:16;21.50;;;4.17;;
21890;SDS011;11110;52.386;16.940;2024-03-17T12:49:44;26.70;;;4.90;;
21890;SDS011;11110;52.386;16.940;2024-03-17T12:52:17;13.23;;;3.07;;
21890;SDS011;11110;52.386;16.940;2024-03-17T12:54:45;19.20;;;3.80;;
21890;SDS011;11110;52.386;16.940;2024-03-17T12:57:43;13.60;;;3.20;;
21890;SDS011;11110;52.386;16.940;2024-03-17T13:00:30;22.17;;;4.57;;
21890;SDS011;11110;52.386;16.940;2024-03-17T13:02:58;22.60;;;4.63;;
21890;SDS011;11110;52.386;16.940;2024-03-17T13:05:26;24.50;;;4.93;;
21890;SDS011;11110;52.386;16.940;2024-03-17T13:07:54;15.20;;;3.37;;
21890;SDS011;11110;52.386;16.940;2024-03-17T13:10:22;16.40;;;4.17;;
21890;SDS011;11110;52.386;16.940;2024-03-17T13:12:58;20.57;;;4.33;;
21890;SDS011;11110;52.386;16.940;2024-03-17T13:15:27;21.93;;;4.53;;
21890;SDS011;11110;52.386;16.940;2024-03-17T13:17:57;26.70;;;4.93;;
21890;SDS011;11110;52.386;16.940;2024-03-17T13:20:26;14.97;;;3.37;;
21890;SDS011;11110;52.386;16.940;2024-03-17T13:22:53;18.13;;;3.77;;
21890;SDS011;11110;52.386;16.940;2024-03-17T13:25:21;14.17;;;3.10;;
21890;SDS011;11110;52.386;16.940;2024-03-17T13:27:51;11.50;;;2.83;;
21890;SDS011;11110;52.386;16.940;2024-03-17T13:30:20;17.13;;;3.53;;
21890;SDS011;11110;52.386;16.940;2024-03-17T13:32:51;12.50;;;3.07;;
21890;SDS011;11110;52.386;16.940;2024-03-17T13:35:23;10.23;;;2.67;;
21890;SDS011;11110;52.386;16.940;2024-03-17T13:37:52;13.47;;;2.93;;
21890;SDS011;11110;52.386;16.940;2024-03-17T13:40:21;14.23;;;3.20;;
21890;SDS011;11110;52.386;16.940;2024-03-17T13:42:49;16.40;;;3.67;;
21890;SDS011;11110;52.386;16.940;2024-03-17T13:45:19;18.00;;;3.73;;
21890;SDS011;11110;52.386;16.940;2024-03-17T13:47:49;16.67;;;3.50;;
21890;SDS011;11110;52.386;16.940;2024-03-17T13:50:21;13.17;;;3.10;;
21890;SDS011;11110;52.386;16.940;2024-03-17T13:52:49;17.60;;;3.87;;
21890;SDS011;11110;52.386;16.940;2024-03-17T13:55:17;17.50;;;3.77;;
21890;SDS011;11110;52.386;16.940;2024-03-17T13:57:47;19.60;;;4.00;;
21890;SDS011;11110;52.386;16.940;2024-03-17T14:00:17;16.00;;;3.43;;
21890;SDS011;11110;52.386;16.940;2024-03-17T14:02:47;14.07;;;3.50;;
21890;SDS011;11110;52.386;16.940;2024-03-17T14:05:17;19.73;;;3.93;;
21890;SDS011;11110;52.386;16.940;2024-03-17T14:07:45;12.00;;;2.93;;
21890;SDS011;11110;52.386;16.940;2024-03-17T14:10:16;13.80;;;3.53;;
21890;SDS011;11110;52.386;16.940;2024-03-17T14:12:44;14.50;;;3.23;;
21890;SDS011;11110;52.386;16.940;2024-03-17T14:15:13;18.67;;;4.27;;
21890;SDS011;11110;52.386;16.940;2024-03-17T14:17:41;14.90;;;3.37;;
21890;SDS011;11110;52.386;16.940;2024-03-17T14:20:10;17.40;;;3.70;;
21890;SDS011;11110;52.386;16.940;2024-03-17T14:22:40;16.97;;;3.63;;
21890;SDS011;11110;52.386;16.940;2024-03-17T14:25:10;15.10;;;3.37;;
21890;SDS011;11110;52.386;16.940;2024-03-17T14:27:42;13.33;;;2.97;;
21890;SDS011;11110;52.386;16.940;2024-03-17T14:30:12;13.07;;;2.83;;
21890;SDS011;11110;52.386;16.940;2024-03-17T14:32:44;14.97;;;3.37;;
21890;SDS011;11110;52.386;16.940;2024-03-17T14:35:13;11.50;;;2.70;;
21890;SDS011;11110;52.386;16.940;2024-03-17T14:37:43;9.37;;;2.17;;
21890;SDS011;11110;52.386;16.940;2024-03-17T14:40:14;12.87;;;2.93;;
21890;SDS011;11110;52.386;16.940;2024-03-17T14:42:47;12.33;;;2.80;;
21890;SDS011;11110;52.386;16.940;2024-03-17T14:45:15;14.07;;;3.20;;
21890;SDS011;11110;52.386;16.940;2024-03-17T14:47:46;19.80;;;4.07;;
21890;SDS011;11110;52.386;16.940;2024-03-17T14:50:13;11.83;;;2.83;;